Time;durP1;ratioP1;P1;durP2;ratioP2;P2;SDS_P1;SDS_P2;PMS_P1;PMS_P2;Temp;Humidity;BMP_temperature;BMP_pressure;BME280_temperature;BME280_humidity;BME280_pressure;Samples;Min_cycle;Max_cycle;Signal;HPM_P1;HPM_P2
2022/07/16 00:03:27;;;;;;;8.30;4.25;;;;;;;10.88;92.19;101968.72;10544039;28;20555;-73
2022/07/16 00:08:27;;;;;;;10.23;4.45;;;;;;;10.71;92.69;101965.94;10555997;28;20055;-73
2022/07/16 00:13:28;;;;;;;11.07;6.47;;;;;;;10.64;93.33;101971.56;10552327;28;20086;-76
2022/07/16 00:23:47;;;;;;;11.45;5.38;;;;;;;10.52;94.10;101963.81;10540403;28;20027;-75
2022/07/16 00:28:48;;;;;;;8.43;4.70;;;;;;;10.48;94.54;101956.56;10521871;28;20035;-76
2022/07/16 00:33:48;;;;;;;7.43;4.78;;;;;;;10.46;94.64;101957.28;10468042;28;20375;-76
2022/07/16 00:38:49;;;;;;;6.50;4.45;;;;;;;10.44;94.84;101949.31;10552249;28;20060;-76
2022/07/16 00:43:56;;;;;;;6.75;4.50;;;;;;;10.48;95.11;101945.19;10551038;28;20127;-75
2022/07/16 00:48:57;;;;;;;8.68;5.07;;;;;;;10.40;94.71;101957.78;10485040;28;20036;-76
2022/07/16 00:53:57;;;;;;;10.65;5.68;;;;;;;10.30;94.64;101956.25;10467498;28;20029;-76
2022/07/16 00:58:58;;;;;;;11.02;5.35;;;;;;;10.13;95.12;101957.72;10515728;28;20039;-75
2022/07/16 01:03:59;;;;;;;8.20;5.75;;;;;;;10.05;95.73;101948.44;10509674;28;20127;-76
2022/07/16 01:09:00;;;;;;;10.63;5.97;;;;;;;9.98;95.99;101961.13;10525295;28;20032;-75
2022/07/16 01:14:00;;;;;;;13.18;6.13;;;;;;;9.89;96.14;101963.09;10550212;28;20090;-76
2022/07/16 01:19:01;;;;;;;14.52;7.20;;;;;;;9.88;96.87;101957.78;10488922;28;20064;-76
2022/07/16 01:24:01;;;;;;;10.90;6.28;;;;;;;9.83;97.45;101961.00;10517497;28;20039;-75
2022/07/16 01:29:02;;;;;;;9.85;5.80;;;;;;;9.81;97.59;101959.06;10549687;28;20103;-75
2022/07/16 01:39:22;;;;;;;10.15;6.55;;;;;;;9.84;97.40;101962.81;10510419;28;20028;-76
2022/07/16 01:44:24;;;;;;;10.43;6.67;;;;;;;9.96;97.54;101967.94;10525996;28;20039;-76
2022/07/16 01:49:25;;;;;;;10.75;6.05;;;;;;;10.10;97.04;101966.28;10567560;28;20158;-76
2022/07/16 01:54:25;;;;;;;10.57;6.43;;;;;;;10.25;96.91;101966.38;10512411;28;20118;-76
2022/07/16 01:59:26;;;;;;;12.05;6.05;;;;;;;10.48;96.47;101964.41;10566436;28;20074;-75
2022/07/16 02:04:28;;;;;;;9.07;5.43;;;;;;;10.72;94.90;101970.34;10537273;28;20040;-73
2022/07/16 02:09:28;;;;;;;10.52;5.95;;;;;;;10.96;94.26;101962.25;10506907;28;20032;-76
2022/07/16 02:14:29;;;;;;;9.13;5.63;;;;;;;11.15;93.66;101966.06;10530549;28;20115;-76
2022/07/16 02:19:29;;;;;;;7.15;4.80;;;;;;;11.23;93.38;101945.56;10527556;28;20086;-75
2022/07/16 02:24:30;;;;;;;11.48;5.97;;;;;;;11.40;92.20;101944.88;10546635;28;20040;-75
2022/07/16 02:29:30;;;;;;;10.77;5.68;;;;;;;11.63;89.10;101948.00;10566849;28;20828;-75
2022/07/16 02:34:31;;;;;;;7.93;4.72;;;;;;;11.74;89.16;101939.06;10544636;28;20036;-76
2022/07/16 02:39:32;;;;;;;11.10;4.88;;;;;;;11.77;89.67;101937.44;10513011;28;20064;-76
2022/07/16 02:44:32;;;;;;;12.05;5.32;;;;;;;11.78;88.98;101928.75;10533923;28;20046;-76
2022/07/16 02:49:33;;;;;;;14.07;6.32;;;;;;;11.77;87.57;101940.06;10535185;28;20495;-76
2022/07/16 02:54:34;;;;;;;8.68;4.75;;;;;;;11.56;88.89;101945.81;10533152;28;20040;-76
2022/07/16 02:59:34;;;;;;;12.05;6.68;;;;;;;11.36;89.56;101944.63;10555110;28;20043;-73
2022/07/16 03:04:35;;;;;;;10.13;5.97;;;;;;;11.05;90.45;101948.81;10554440;28;20483;-75
2022/07/16 03:09:35;;;;;;;6.55;4.82;;;;;;;10.90;91.99;101951.41;10514159;28;20123;-76
2022/07/16 03:14:36;;;;;;;8.85;5.53;;;;;;;10.70;92.47;101942.25;10531633;28;20123;-76
2022/07/16 03:19:36;;;;;;;9.82;5.10;;;;;;;10.65;92.85;101941.97;10534700;28;20449;-76
2022/07/16 03:24:37;;;;;;;9.90;5.57;;;;;;;10.57;93.00;101951.94;10528628;28;20047;-76
2022/07/16 03:29:38;;;;;;;7.80;4.97;;;;;;;10.69;93.21;101948.28;10537116;28;20498;-76
2022/07/16 03:34:39;;;;;;;9.43;5.78;;;;;;;10.87;92.47;101948.59;10544699;28;20102;-76
2022/07/16 03:39:39;;;;;;;12.98;5.32;;;;;;;10.99;91.67;101957.22;10553970;28;20059;-77
2022/07/16 03:44:40;;;;;;;9.18;5.22;;;;;;;11.21;90.21;101966.44;10544348;28;20148;-77
2022/07/16 03:49:40;;;;;;;12.48;6.68;;;;;;;11.30;89.07;101959.16;10553390;28;20050;-76
2022/07/16 03:54:41;;;;;;;11.25;5.75;;;;;;;11.34;89.62;101959.34;10539262;28;20094;-76
2022/07/16 03:59:41;;;;;;;6.75;4.45;;;;;;;11.50;88.93;101955.94;10511878;28;20040;-76
2022/07/16 04:04:42;;;;;;;8.30;4.85;;;;;;;11.58;88.46;101958.22;10540833;28;20589;-75
2022/07/16 04:09:42;;;;;;;8.43;5.20;;;;;;;11.70;88.18;101959.78;10549168;28;20100;-75
2022/07/16 04:14:43;;;;;;;9.20;5.25;;;;;;;11.83;88.62;101964.03;10551235;28;20048;-75
2022/07/16 04:19:44;;;;;;;14.15;6.90;;;;;;;11.99;88.35;101965.88;10523510;28;20039;-76
2022/07/16 04:24:44;;;;;;;6.53;4.35;;;;;;;12.05;87.31;101963.66;10509485;28;20032;-75
2022/07/16 04:29:45;;;;;;;10.73;5.28;;;;;;;12.07;87.38;101961.09;10521004;28;20042;-76
2022/07/16 04:34:45;;;;;;;9.02;4.55;;;;;;;12.08;86.92;101965.53;10546040;28;20035;-77
2022/07/16 04:39:46;;;;;;;7.35;4.05;;;;;;;12.23;86.15;101971.69;10551256;28;20141;-75
2022/07/16 04:44:46;;;;;;;7.25;5.10;;;;;;;12.29;84.02;101987.78;10569075;28;20040;-72
2022/07/16 04:49:47;;;;;;;7.60;4.72;;;;;;;12.28;84.58;101979.84;10564718;28;20036;-75
2022/07/16 04:54:47;;;;;;;11.45;5.45;;;;;;;12.30;83.75;101989.59;10528920;28;20587;-75
2022/07/16 04:59:48;;;;;;;7.25;4.80;;;;;;;12.56;84.14;101994.56;10525429;28;20058;-72
2022/07/16 05:04:48;;;;;;;9.57;4.95;;;;;;;12.86;83.58;101994.50;10544898;28;20086;-75
2022/07/16 05:09:49;;;;;;;11.02;5.18;;;;;;;13.16;83.27;101986.53;10551577;28;20044;-73
2022/07/16 05:14:50;;;;;;;10.20;4.35;;;;;;;13.33;81.78;101987.41;10494503;28;20029;-73
2022/07/16 05:19:50;;;;;;;10.18;5.30;;;;;;;13.38;82.33;101983.31;10530638;28;20459;-74
2022/07/16 05:24:51;;;;;;;17.80;7.45;;;;;;;13.36;83.02;101978.00;10534803;28;20035;-72
2022/07/16 05:29:51;;;;;;;7.32;4.90;;;;;;;13.40;83.51;101989.56;10522869;28;20566;-73
2022/07/16 05:34:52;;;;;;;12.82;6.38;;;;;;;13.53;83.56;101993.81;10512073;28;20054;-73
2022/07/16 05:39:52;;;;;;;9.25;5.68;;;;;;;14.16;82.44;101997.91;10515100;28;20028;-72
2022/07/16 05:44:52;;;;;;;15.25;6.93;;;;;;;14.73;79.46;102013.03;10475343;28;20034;-72
2022/07/16 05:49:53;;;;;;;11.68;6.07;;;;;;;14.95;79.02;102015.00;10506203;28;20040;-72
2022/07/16 05:54:53;;;;;;;8.18;6.20;;;;;;;15.13;78.80;102022.88;10506868;28;20127;-73
2022/07/16 05:59:54;;;;;;;20.52;7.35;;;;;;;15.61;78.42;102021.53;10523472;28;20655;-72
2022/07/16 06:04:54;;;;;;;9.27;5.25;;;;;;;16.55;75.89;102020.34;10505508;28;20032;-73
2022/07/16 06:09:55;;;;;;;11.02;6.43;;;;;;;18.07;71.38;102014.66;10488271;28;20092;-73
2022/07/16 06:14:56;;;;;;;9.68;5.93;;;;;;;19.64;65.26;102023.19;10497354;28;20032;-73
2022/07/16 06:19:56;;;;;;;9.33;5.37;;;;;;;21.30;58.48;102015.81;10498653;28;20056;-73
2022/07/16 06:24:57;;;;;;;12.37;6.03;;;;;;;22.58;55.86;102025.38;10533224;28;20028;-73
2022/07/16 06:30:02;;;;;;;15.13;6.80;;;;;;;23.49;52.93;102016.91;10533238;28;20028;-73
2022/07/16 06:35:03;;;;;;;7.95;5.75;;;;;;;24.09;50.82;102016.69;10498895;28;20036;-73
2022/07/16 06:40:04;;;;;;;7.47;6.10;;;;;;;23.51;52.99;102030.25;10532460;28;20054;-73
2022/07/16 06:45:05;;;;;;;10.10;4.78;;;;;;;23.81;52.38;102029.72;10514135;28;20039;-74
2022/07/16 06:50:05;;;;;;;6.72;3.45;;;;;;;24.83;50.25;102037.81;10514301;28;20039;-74
2022/07/16 06:55:07;;;;;;;4.53;2.83;;;;;;;25.21;49.04;102041.63;10498350;28;20047;-75
2022/07/16 07:00:08;;;;;;;6.93;2.47;;;;;;;26.48;44.36;102042.00;10497206;28;20099;-75
2022/07/16 07:05:09;;;;;;;7.20;2.97;;;;;;;25.60;46.35;102052.53;10497308;28;20377;-75
2022/07/16 07:10:09;;;;;;;4.40;3.03;;;;;;;23.47;49.95;102058.72;10531328;28;20063;-74
2022/07/16 07:15:10;;;;;;;6.13;3.27;;;;;;;21.97;54.37;102070.47;10512960;28;20090;-73
2022/07/16 07:20:11;;;;;;;6.77;3.20;;;;;;;20.89;57.83;102072.56;10531447;28;20532;-73
2022/07/16 07:25:12;;;;;;;7.33;2.97;;;;;;;20.22;61.08;102075.28;10511579;28;20038;-73
2022/07/16 07:30:12;;;;;;;11.80;5.03;;;;;;;20.85;60.48;102077.75;10531170;28;20029;-72
2022/07/16 07:35:13;;;;;;;5.93;3.33;;;;;;;23.45;54.96;102079.19;10495579;28;20063;-73
2022/07/16 07:40:13;;;;;;;7.83;4.30;;;;;;;23.71;53.29;102081.28;10512214;28;20038;-73
2022/07/16 07:45:14;;;;;;;6.93;3.07;;;;;;;22.73;55.15;102094.09;10512567;28;20044;-73
2022/07/16 07:50:14;;;;;;;5.30;3.03;;;;;;;22.28;58.70;102095.94;10512087;28;20075;-72
2022/07/16 07:55:15;;;;;;;2.87;1.57;;;;;;;24.46;49.67;102089.25;10530117;28;20032;-73
2022/07/16 08:00:15;;;;;;;7.03;1.90;;;;;;;24.53;48.53;102094.66;10529085;28;20079;-73
2022/07/16 08:05:16;;;;;;;3.67;1.33;;;;;;;23.48;50.29;102105.00;10512160;28;20060;-73
2022/07/16 08:10:16;;;;;;;2.93;1.27;;;;;;;22.76;51.05;102100.38;10494312;28;20032;-73
2022/07/16 08:15:17;;;;;;;3.27;1.70;;;;;;;24.16;48.18;102103.19;10528936;28;20103;-73
2022/07/16 08:20:17;;;;;;;3.60;1.70;;;;;;;26.08;45.64;102106.31;10511304;28;20387;-73
2022/07/16 08:30:37;;;;;;;5.18;1.75;;;;;;;23.68;48.23;102132.91;10513237;28;20394;-72
2022/07/16 08:35:38;;;;;;;5.60;2.17;;;;;;;23.79;50.84;102125.03;10509440;28;20032;-73
2022/07/16 08:40:40;;;;;;;2.40;1.77;;;;;;;23.28;45.89;102137.69;10510329;28;20070;-73
2022/07/16 08:45:41;;;;;;;3.50;1.52;;;;;;;22.91;50.47;102140.66;10476303;28;20040;-73
2022/07/16 08:50:42;;;;;;;4.50;2.20;;;;;;;26.35;44.74;102132.31;10509266;28;20377;-72
2022/07/16 08:55:42;;;;;;;3.53;1.60;;;;;;;28.70;36.48;102132.56;10493500;28;20082;-73
2022/07/16 09:00:43;;;;;;;5.03;1.23;;;;;;;29.31;35.88;102143.69;10491304;28;20572;-73
2022/07/16 09:05:44;;;;;;;2.45;1.17;;;;;;;25.65;40.29;102153.53;10509522;28;20443;-73
2022/07/16 09:10:45;;;;;;;4.28;1.25;;;;;;;26.60;38.53;102148.47;10526686;28;20376;-73
2022/07/16 09:15:46;;;;;;;2.17;1.30;;;;;;;29.27;34.91;102163.50;10508603;28;20044;-73
2022/07/16 09:20:49;;;;;;;3.45;1.35;;;;;;;31.25;31.58;102160.78;10526419;28;20541;-74
2022/07/16 09:25:54;;;;;;;1.73;1.00;;;;;;;32.17;30.36;102170.63;10525863;28;20475;-73
2022/07/16 09:30:55;;;;;;;3.97;1.30;;;;;;;27.98;33.78;102180.53;10493180;28;20036;-73
2022/07/16 09:36:11;;;;;;;3.40;1.50;;;;;;;23.70;41.16;102192.59;10507300;28;20060;-73
2022/07/16 09:41:14;;;;;;;2.13;1.05;;;;;;;27.29;35.04;102183.41;10507858;28;20048;-73
2022/07/16 09:46:19;;;;;;;1.70;0.90;;;;;;;30.08;28.38;102181.47;10507443;28;20537;-73
2022/07/16 09:51:26;;;;;;;3.35;1.30;;;;;;;30.66;27.33;102186.09;10526182;28;20115;-73
2022/07/16 09:56:27;;;;;;;1.35;1.17;;;;;;;31.27;26.10;102189.56;10525700;28;20031;-74
2022/07/16 10:01:27;;;;;;;;;;;;;;;31.51;28.56;102189.13;10525702;28;20043;-73
2022/07/16 10:06:28;;;;;;;4.47;1.10;;;;;;;32.51;26.34;102194.25;10524469;28;20371;-74
2022/07/16 10:11:28;;;;;;;;;;;;;;;31.23;29.45;102201.34;10507659;28;20043;-74
2022/07/16 10:16:40;;;;;;;2.63;1.10;;;;;;;28.11;31.85;102199.31;10506957;28;19922;-73
2022/07/16 10:21:41;;;;;;;7.20;1.42;;;;;;;29.05;30.76;102194.25;10490251;28;20560;-74
2022/07/16 10:26:42;;;;;;;2.45;1.20;;;;;;;28.77;31.48;102199.88;10506528;28;20454;-74
2022/07/16 10:37:05;;;;;;;3.72;1.50;;;;;;;29.93;30.87;102203.25;10508593;28;20055;-73
2022/07/16 10:42:06;;;;;;;2.38;0.98;;;;;;;29.03;30.15;102205.06;10524397;28;20443;-73
2022/07/16 10:47:07;;;;;;;3.17;1.20;;;;;;;29.34;29.96;102214.66;10489848;28;20024;-74
2022/07/16 10:52:14;;;;;;;1.80;1.13;;;;;;;30.29;29.01;102215.41;10506314;28;20048;-74
2022/07/16 10:57:16;;;;;;;3.40;0.90;;;;;;;30.54;28.77;102204.25;10491722;28;20040;-74
2022/07/16 11:02:17;;;;;;;2.13;0.98;;;;;;;27.30;32.85;102237.16;10514949;28;20043;-73
2022/07/16 11:07:19;;;;;;;2.35;0.85;;;;;;;27.84;33.29;102238.88;10496565;28;20122;-73
2022/07/16 11:12:21;;;;;;;1.40;0.80;;;;;;;28.49;32.42;102232.34;10530851;28;20058;-74
2022/07/16 11:17:26;;;;;;;;;;;;;;;30.29;28.84;102225.28;10513154;28;20035;-74
2022/07/16 11:22:29;;;;;;;3.83;1.70;;;;;;;29.84;30.31;102236.63;10513509;28;19916;-73
2022/07/16 11:27:37;;;;;;;17.63;3.30;;;;;;;31.31;27.34;102239.09;10496898;28;20040;-74
2022/07/16 11:32:44;;;;;;;4.65;1.48;;;;;;;31.11;29.08;102236.69;10496525;28;20510;-73
2022/07/16 11:37:48;;;;;;;3.40;1.52;;;;;;;31.34;26.93;102236.31;10531546;28;20089;-73
2022/07/16 11:42:57;;;;;;;5.05;1.65;;;;;;;27.49;32.53;102240.75;10513379;28;20048;-74
2022/07/16 11:48:16;;;;;;;16.27;1.80;;;;;;;29.50;30.90;102240.59;10511264;28;20036;-73
2022/07/16 11:53:29;;;;;;;3.28;1.35;;;;;;;29.98;28.37;102248.16;10495455;28;20432;-73
2022/07/16 11:58:29;;;;;;;3.90;1.25;;;;;;;29.26;29.13;102236.31;10509592;28;20032;-74
2022/07/16 12:03:30;;;;;;;4.00;1.50;;;;;;;30.80;28.79;102234.50;10527607;28;20040;-74
2022/07/16 12:08:32;;;;;;;3.87;0.93;;;;;;;30.00;28.99;102240.97;10493213;28;20063;-75
2022/07/16 12:13:37;;;;;;;3.05;1.00;;;;;;;26.91;31.38;102247.00;10449061;28;20053;-77
2022/07/16 12:18:37;;;;;;;4.53;1.40;;;;;;;26.93;34.20;102242.53;10474200;28;20032;-76
2022/07/16 12:23:38;;;;;;;3.57;1.17;;;;;;;28.28;31.30;102250.41;10465681;28;20150;-77
2022/07/16 12:28:38;;;;;;;2.70;1.40;;;;;;;27.66;31.75;102246.09;10444095;28;20037;-77
2022/07/16 12:33:40;;;;;;;2.90;1.17;;;;;;;26.88;34.26;102255.06;10427373;28;20084;-76
2022/07/16 12:38:45;;;;;;;2.75;0.90;;;;;;;29.10;29.46;102247.22;10442406;28;20045;-74
2022/07/16 12:43:53;;;;;;;5.35;1.48;;;;;;;29.62;28.65;102257.53;10443863;28;20029;-75
2022/07/16 12:48:58;;;;;;;7.53;1.35;;;;;;;30.48;26.92;102250.25;10442442;28;20389;-74
2022/07/16 12:53:59;;;;;;;3.85;1.40;;;;;;;29.71;29.66;102249.34;10462462;28;20481;-73
2022/07/16 12:59:00;;;;;;;4.65;1.30;;;;;;;29.85;27.63;102251.91;10450411;28;20031;-73
2022/07/16 13:04:00;;;;;;;4.10;2.03;;;;;;;28.31;31.81;102255.75;10518990;28;20047;-73
2022/07/16 13:09:03;;;;;;;5.50;1.63;;;;;;;28.23;30.48;102257.59;10526424;28;20118;-73
2022/07/16 13:14:04;;;;;;;2.35;1.10;;;;;;;29.98;27.98;102264.34;10490793;28;20400;-73
2022/07/16 13:19:05;;;;;;;2.25;1.10;;;;;;;30.41;25.07;102256.66;10491553;28;20059;-74
2022/07/16 13:24:05;;;;;;;5.33;1.50;;;;;;;30.33;25.49;102254.94;10507041;28;20156;-74
2022/07/16 13:29:06;;;;;;;6.15;1.33;;;;;;;30.53;25.90;102252.88;10526129;28;20442;-74
2022/07/16 13:34:06;;;;;;;2.73;1.20;;;;;;;30.03;24.55;102267.03;10539621;28;20140;-75
2022/07/16 13:39:07;;;;;;;2.87;1.67;;;;;;;29.77;26.43;102262.78;10567034;28;20036;-75
2022/07/16 13:44:07;;;;;;;2.03;0.80;;;;;;;30.29;26.31;102247.81;10526749;28;20466;-75
2022/07/16 13:49:08;;;;;;;5.43;1.47;;;;;;;28.99;27.75;102254.50;10523355;28;20024;-75
2022/07/16 13:54:08;;;;;;;5.63;1.83;;;;;;;29.18;26.32;102255.22;10523504;28;20383;-74
2022/07/16 13:59:09;;;;;;;4.10;1.33;;;;;;;29.73;27.27;102261.03;10507060;28;20040;-74
2022/07/16 14:04:09;;;;;;;2.93;1.07;;;;;;;29.12;26.27;102255.28;10523740;28;20032;-74
2022/07/16 14:09:11;;;;;;;2.10;1.00;;;;;;;29.67;28.17;102261.09;10468384;28;20043;-76
2022/07/16 14:14:12;;;;;;;4.75;1.13;;;;;;;30.02;26.34;102251.72;10494990;28;20043;-74
2022/07/16 14:19:13;;;;;;;3.13;1.63;;;;;;;30.42;24.58;102245.81;10473242;28;20038;-74
2022/07/16 14:24:14;;;;;;;3.90;1.13;;;;;;;30.02;27.91;102254.44;10506374;28;20036;-74
2022/07/16 14:29:14;;;;;;;3.57;1.03;;;;;;;29.76;27.57;102250.19;10487737;28;20036;-76
2022/07/16 14:34:15;;;;;;;3.83;1.33;;;;;;;29.74;25.70;102252.03;10514685;28;20270;-75
2022/07/16 14:39:15;;;;;;;4.43;1.83;;;;;;;29.29;28.47;102255.16;10483351;27;20038;-74
2022/07/16 14:44:16;;;;;;;2.27;1.13;;;;;;;27.93;28.73;102260.38;10555518;27;20529;-74
2022/07/16 14:49:16;;;;;;;2.53;1.10;;;;;;;26.83;29.13;102260.41;10538821;27;20047;-75
2022/07/16 14:54:17;;;;;;;2.43;1.17;;;;;;;26.39;30.63;102257.56;10529999;28;20411;-76
2022/07/16 14:59:18;;;;;;;3.33;1.30;;;;;;;26.90;31.53;102256.84;10485144;28;20093;-76
2022/07/16 15:04:18;;;;;;;3.73;1.20;;;;;;;26.77;31.02;102263.94;10525737;27;20039;-76
2022/07/16 15:09:19;;;;;;;6.03;1.43;;;;;;;26.92;29.72;102264.91;10571561;27;20042;-76
2022/07/16 15:14:19;;;;;;;4.40;2.07;;;;;;;25.54;29.61;102265.16;10501276;28;20066;-73
2022/07/16 15:19:20;;;;;;;12.33;5.77;;;;;;;24.32;35.71;102267.44;10528520;28;20039;-73
2022/07/16 15:24:21;;;;;;;7.23;1.80;;;;;;;23.96;35.20;102274.06;10529097;28;20058;-73
2022/07/16 15:29:21;;;;;;;5.13;1.70;;;;;;;23.57;35.52;102270.78;10531185;28;20036;-72
2022/07/16 15:34:22;;;;;;;7.30;0.97;;;;;;;23.49;35.34;102270.69;10537783;28;20126;-73
2022/07/16 15:39:23;;;;;;;5.43;1.57;;;;;;;23.58;35.29;102276.19;10518508;28;20104;-73
2022/07/16 15:44:23;;;;;;;12.03;2.03;;;;;;;23.40;36.00;102270.53;10559225;28;20054;-74
2022/07/16 15:49:24;;;;;;;5.00;1.97;;;;;;;23.04;37.60;102267.22;10532448;28;20060;-73
2022/07/16 15:54:25;;;;;;;4.20;1.37;;;;;;;22.82;37.75;102272.16;10512999;28;20032;-73
2022/07/16 15:59:27;;;;;;;4.93;1.55;;;;;;;22.69;36.84;102270.13;10553471;28;20157;-73
2022/07/16 16:04:27;;;;;;;3.80;1.80;;;;;;;22.72;38.32;102268.41;10552415;28;20185;-73
2022/07/16 16:09:28;;;;;;;3.93;1.53;;;;;;;22.49;38.13;102265.28;10528082;28;20038;-72
2022/07/16 16:14:28;;;;;;;2.73;1.00;;;;;;;22.43;39.03;102259.78;10553161;28;20055;-73
2022/07/16 16:19:29;;;;;;;4.70;1.27;;;;;;;22.45;39.13;102263.41;10552206;28;20414;-73
2022/07/16 16:24:29;;;;;;;6.37;1.77;;;;;;;22.39;38.98;102261.50;10550637;28;20119;-73
2022/07/16 16:29:30;;;;;;;4.33;1.10;;;;;;;22.25;40.58;102276.31;10552143;28;20161;-73
2022/07/16 16:34:30;;;;;;;2.72;0.80;;;;;;;22.33;39.61;102287.13;10552013;28;20032;-73
2022/07/16 16:39:31;;;;;;;4.07;1.13;;;;;;;22.20;38.22;102284.19;10552913;28;20864;-72
2022/07/16 16:44:32;;;;;;;2.40;1.23;;;;;;;21.98;40.05;102283.72;10570083;28;20043;-73
2022/07/16 16:49:33;;;;;;;2.83;1.15;;;;;;;21.96;39.30;102276.56;10551119;28;20047;-73
2022/07/16 16:54:33;;;;;;;3.07;1.17;;;;;;;21.92;38.75;102272.91;10551014;28;20130;-75
2022/07/16 16:59:34;;;;;;;5.40;1.27;;;;;;;21.79;38.53;102278.84;10570131;28;20122;-73
2022/07/16 17:04:34;;;;;;;5.57;1.27;;;;;;;21.64;39.44;102277.59;10551739;28;20036;-72
2022/07/16 17:09:35;;;;;;;4.32;1.58;;;;;;;21.48;40.91;102283.38;10548213;28;20036;-73
2022/07/16 17:14:35;;;;;;;4.20;1.45;;;;;;;21.41;39.33;102282.34;10482234;28;20037;-73
2022/07/16 17:19:36;;;;;;;3.58;1.23;;;;;;;21.26;40.54;102280.16;10489847;28;20050;-72
2022/07/16 17:24:37;;;;;;;3.78;1.45;;;;;;;21.17;40.25;102280.84;10516712;28;20082;-73
2022/07/16 17:29:37;;;;;;;4.65;1.48;;;;;;;20.95;42.55;102282.03;10567336;28;20114;-72
2022/07/16 17:34:38;;;;;;;6.47;1.00;;;;;;;20.91;42.20;102281.06;10508815;28;20040;-73
2022/07/16 17:39:38;;;;;;;3.80;1.20;;;;;;;20.90;40.58;102281.91;10517963;28;20046;-73
2022/07/16 17:44:39;;;;;;;7.55;1.20;;;;;;;20.76;42.13;102296.56;10566457;28;20075;-72
2022/07/16 17:49:52;;;;;;;4.38;1.00;;;;;;;20.59;41.25;102304.03;10565718;28;20384;-72
2022/07/16 17:54:57;;;;;;;10.25;1.85;;;;;;;20.27;43.66;102303.97;10551299;28;20039;-72
2022/07/16 17:59:57;;;;;;;7.33;1.10;;;;;;;19.98;43.93;102311.97;10545997;28;20035;-72
2022/07/16 18:04:58;;;;;;;5.55;1.52;;;;;;;20.01;42.50;102312.97;10556256;28;20036;-72
2022/07/16 18:09:58;;;;;;;4.85;1.02;;;;;;;19.97;43.31;102316.38;10506793;28;20109;-73
2022/07/16 18:14:59;;;;;;;2.10;0.80;;;;;;;19.67;42.50;102319.81;10510357;28;20097;-73
2022/07/16 18:20:00;;;;;;;3.80;1.20;;;;;;;19.47;44.65;102321.78;10548607;28;20032;-73
2022/07/16 18:25:00;;;;;;;3.38;1.10;;;;;;;19.18;45.44;102329.63;10546909;28;20032;-72
2022/07/16 18:30:03;;;;;;;3.80;1.23;;;;;;;19.22;43.76;102331.56;10506282;28;20503;-72
2022/07/16 18:35:04;;;;;;;5.00;1.15;;;;;;;19.18;44.53;102333.22;10524183;28;20032;-72
2022/07/16 18:40:05;;;;;;;4.05;1.00;;;;;;;19.05;44.32;102336.28;10538086;28;20468;-73
2022/07/16 18:45:06;;;;;;;1.90;0.80;;;;;;;18.99;43.73;102344.00;10541266;28;20104;-72
2022/07/16 18:50:07;;;;;;;4.82;1.20;;;;;;;18.79;43.27;102345.03;10548105;28;20031;-72
2022/07/16 18:55:10;;;;;;;4.33;1.40;;;;;;;18.37;45.74;102354.91;10545869;28;20149;-72
2022/07/16 19:00:10;;;;;;;2.30;1.40;;;;;;;17.79;48.50;102357.00;10562012;28;20135;-72
2022/07/16 19:05:11;;;;;;;4.15;1.30;;;;;;;17.34;50.11;102363.00;10524738;28;20040;-72
2022/07/16 19:10:12;;;;;;;4.28;1.65;;;;;;;17.02;51.45;102364.31;10505371;28;20036;-72
2022/07/16 19:15:12;;;;;;;5.03;1.60;;;;;;;16.72;52.27;102371.72;10553345;28;20103;-73
2022/07/16 19:20:13;;;;;;;3.15;1.70;;;;;;;16.37;53.90;102363.94;10534661;28;20238;-73
2022/07/16 19:25:14;;;;;;;6.55;2.10;;;;;;;16.09;55.05;102372.28;10523780;28;20032;-72
2022/07/16 19:30:15;;;;;;;6.28;1.60;;;;;;;15.81;55.33;102366.47;10560898;28;20071;-72
2022/07/16 19:35:15;;;;;;;3.20;1.48;;;;;;;15.61;55.92;102380.41;10507523;28;20036;-72
2022/07/16 19:40:16;;;;;;;2.95;1.30;;;;;;;15.33;56.43;102382.53;10511276;28;20535;-72
2022/07/16 19:45:16;;;;;;;5.55;1.40;;;;;;;15.05;59.00;102389.00;10541435;28;20042;-72
2022/07/16 19:50:17;;;;;;;2.65;1.25;;;;;;;14.83;63.06;102401.00;10565933;28;20032;-72
2022/07/16 20:00:37;;;;;;;8.07;2.33;;;;;;;14.24;64.69;102400.34;10556542;28;20043;-73
2022/07/16 20:05:38;;;;;;;2.92;1.30;;;;;;;13.94;64.64;102404.75;10507791;28;20051;-76
2022/07/16 20:10:38;;;;;;;4.88;1.45;;;;;;;13.59;65.65;102411.44;10511443;28;20392;-75
2022/07/16 20:15:39;;;;;;;6.85;1.52;;;;;;;13.35;66.63;102411.75;10531298;28;20050;-72
2022/07/16 20:20:46;;;;;;;3.45;1.42;;;;;;;13.13;67.63;102425.31;10568284;28;20588;-73
2022/07/16 20:25:46;;;;;;;6.80;1.60;;;;;;;12.95;67.47;102433.84;10543991;28;20036;-71
2022/07/16 20:30:47;;;;;;;4.53;1.35;;;;;;;12.73;68.61;102435.13;10570738;28;20120;-72
2022/07/16 20:35:47;;;;;;;5.90;1.67;;;;;;;12.55;69.23;102433.94;10568612;28;20040;-72
2022/07/16 20:40:48;;;;;;;5.80;1.33;;;;;;;12.43;69.96;102436.66;10569873;28;20058;-73
2022/07/16 20:45:48;;;;;;;3.45;1.63;;;;;;;12.30;71.05;102442.84;10566424;28;20076;-75
2022/07/16 20:50:49;;;;;;;6.28;2.05;;;;;;;12.14;71.77;102433.97;10534728;28;20476;-75
2022/07/16 20:55:50;;;;;;;3.88;1.60;;;;;;;12.15;72.62;102441.03;10538488;28;20028;-75
2022/07/16 21:00:51;;;;;;;6.80;1.70;;;;;;;12.09;72.98;102443.25;10541099;28;20052;-74
2022/07/16 21:05:51;;;;;;;6.47;1.58;;;;;;;11.96;73.23;102451.97;10499314;28;20040;-74
2022/07/16 21:10:52;;;;;;;6.78;2.10;;;;;;;11.80;73.65;102451.72;10526701;28;20457;-74
2022/07/16 21:15:53;;;;;;;17.60;2.30;;;;;;;11.68;74.55;102457.06;10488345;28;20051;-74
2022/07/16 21:20:53;;;;;;;13.90;3.58;;;;;;;11.57;75.30;102459.84;10449373;28;20372;-74
2022/07/16 21:25:54;;;;;;;8.88;1.92;;;;;;;11.46;75.93;102464.34;10505066;28;20449;-75
2022/07/16 21:30:54;;;;;;;7.57;3.10;;;;;;;11.37;76.89;102466.31;10450618;28;20039;-75
2022/07/16 21:35:55;;;;;;;7.53;2.40;;;;;;;11.24;77.00;102471.50;10504551;28;20135;-74
2022/07/16 21:40:55;;;;;;;7.00;1.90;;;;;;;11.11;77.78;102473.25;10491865;28;20113;-74
2022/07/16 21:45:56;;;;;;;3.85;1.83;;;;;;;11.00;78.45;102471.56;10493284;28;20048;-74
2022/07/16 21:50:56;;;;;;;3.15;1.50;;;;;;;10.91;79.20;102477.06;10494056;28;20064;-74
2022/07/16 21:55:57;;;;;;;5.40;1.90;;;;;;;10.82;79.55;102472.06;10469028;28;20036;-74
2022/07/16 22:00:57;;;;;;;4.20;1.60;;;;;;;10.76;80.01;102482.09;10506625;28;20123;-74
2022/07/16 22:05:58;;;;;;;5.55;3.00;;;;;;;10.67;80.98;102484.03;10521750;28;20400;-74
2022/07/16 22:10:58;;;;;;;9.75;2.47;;;;;;;10.68;82.06;102496.34;10507263;28;20052;-74
2022/07/16 22:15:59;;;;;;;3.92;2.35;;;;;;;10.64;82.05;102499.53;10488522;28;20048;-74
2022/07/16 22:21:00;;;;;;;5.88;1.95;;;;;;;10.69;83.92;102500.78;10492089;28;20042;-74
2022/07/16 22:26:00;;;;;;;4.28;1.85;;;;;;;10.61;84.19;102508.09;10483534;28;20491;-73
2022/07/16 22:31:01;;;;;;;4.57;2.13;;;;;;;10.48;84.44;102510.59;10495755;28;20036;-74
2022/07/16 22:36:01;;;;;;;4.30;1.45;;;;;;;10.40;85.29;102515.25;10522877;28;20131;-74
2022/07/16 22:41:03;;;;;;;10.23;2.50;;;;;;;10.38;85.40;102512.50;10495151;28;20046;-74
2022/07/16 22:46:04;;;;;;;5.90;1.83;;;;;;;10.38;85.94;102517.72;10482349;28;20120;-74
2022/07/16 22:51:04;;;;;;;6.55;1.88;;;;;;;10.26;86.00;102516.81;10496282;28;20048;-74
2022/07/16 22:56:05;;;;;;;8.60;2.38;;;;;;;10.13;86.25;102510.66;10496220;28;20097;-74
2022/07/16 23:01:05;;;;;;;6.78;2.10;;;;;;;10.01;86.85;102522.78;10541037;28;20066;-74
2022/07/16 23:06:06;;;;;;;4.65;2.00;;;;;;;9.96;87.04;102518.91;10575559;28;20042;-73
2022/07/16 23:11:07;;;;;;;7.53;2.20;;;;;;;9.88;87.61;102518.31;10548115;28;20036;-74
2022/07/16 23:16:07;;;;;;;6.70;2.38;;;;;;;9.79;87.83;102517.59;10538371;28;20540;-74
2022/07/16 23:21:08;;;;;;;15.52;3.35;;;;;;;9.73;89.11;102514.50;10512879;28;20048;-74
2022/07/16 23:26:08;;;;;;;9.80;2.58;;;;;;;9.71;89.75;102511.78;10531947;28;20067;-74
2022/07/16 23:31:09;;;;;;;3.90;2.50;;;;;;;9.73;90.12;102524.97;10513930;28;20068;-74